Time;durP1;ratioP1;P1;durP2;ratioP2;P2;SDS_P1;SDS_P2;PMS_P1;PMS_P2;Temp;Humidity;BMP_temperature;BMP_pressure;BME280_temperature;BME280_humidity;BME280_pressure;Samples;Min_cycle;Max_cycle;Signal;HPM_P1;HPM_P2
2021/01/24 00:01:41;;;;;;;21.80;12.80;;;1.80;99.90;;;;;;5052314;28;20583;-72
2021/01/24 00:04:07;;;;;;;20.97;13.63;;;1.80;99.90;;;;;;5052797;28;20194;-71
2021/01/24 00:06:32;;;;;;;19.70;13.87;;;1.80;99.90;;;;;;5034648;28;20206;-71
2021/01/24 00:08:58;;;;;;;20.63;14.27;;;1.80;99.90;;;;;;5034632;28;20167;-71
2021/01/24 00:11:23;;;;;;;16.93;11.83;;;1.80;99.90;;;;;;5052314;28;20214;-71
2021/01/24 00:13:48;;;;;;;22.80;15.00;;;1.80;99.90;;;;;;5052272;28;20305;-71
2021/01/24 00:16:14;;;;;;;24.33;13.20;;;1.80;99.90;;;;;;5052023;28;20542;-72
2021/01/24 00:18:39;;;;;;;19.80;13.80;;;1.90;99.90;;;;;;5052368;28;20231;-71
2021/01/24 00:21:05;;;;;;;18.50;12.60;;;1.90;99.90;;;;;;5052298;28;20202;-71
2021/01/24 00:23:30;;;;;;;21.83;13.20;;;1.90;99.90;;;;;;5052041;28;20178;-72
2021/01/24 00:25:56;;;;;;;18.50;13.33;;;1.90;99.90;;;;;;5051935;28;20175;-72
2021/01/24 00:28:21;;;;;;;20.13;12.53;;;1.90;99.90;;;;;;5052065;28;20167;-71
2021/01/24 00:30:48;;;;;;;22.77;14.10;;;2.00;99.90;;;;;;5051741;28;20236;-71
2021/01/24 00:33:13;;;;;;;20.43;13.07;;;2.00;99.90;;;;;;5033855;28;20433;-71
2021/01/24 00:35:39;;;;;;;22.20;14.53;;;2.00;99.90;;;;;;5051835;28;20754;-71
2021/01/24 00:38:04;;;;;;;21.73;15.80;;;2.00;99.90;;;;;;5051609;28;20159;-72
2021/01/24 00:40:30;;;;;;;18.30;14.30;;;2.00;99.90;;;;;;5051747;28;20183;-71
2021/01/24 00:42:55;;;;;;;24.00;12.53;;;2.00;99.90;;;;;;5051914;28;20202;-71
2021/01/24 00:45:21;;;;;;;21.13;13.83;;;2.00;99.90;;;;;;5051715;28;20179;-71
2021/01/24 00:47:46;;;;;;;17.60;12.80;;;2.00;99.90;;;;;;5051672;28;20589;-72
2021/01/24 00:50:12;;;;;;;20.70;13.03;;;2.00;99.90;;;;;;5052144;28;20290;-70
2021/01/24 00:52:38;;;;;;;17.37;12.57;;;2.00;99.90;;;;;;5052250;28;20170;-71
2021/01/24 00:55:04;;;;;;;19.33;13.70;;;2.10;99.90;;;;;;5051980;28;20442;-71
2021/01/24 00:57:29;;;;;;;20.87;14.00;;;2.10;99.90;;;;;;5051857;28;20174;-71
2021/01/24 00:59:54;;;;;;;19.73;12.03;;;2.10;99.90;;;;;;5051767;28;20177;-72
2021/01/24 01:02:20;;;;;;;19.17;14.03;;;2.20;99.90;;;;;;5051824;28;20175;-70
2021/01/24 01:04:45;;;;;;;21.30;13.17;;;2.20;99.90;;;;;;5051774;28;20182;-71
2021/01/24 01:07:11;;;;;;;20.77;13.87;;;2.20;99.90;;;;;;5051515;28;20174;-71
2021/01/24 01:09:36;;;;;;;18.00;12.17;;;2.30;99.90;;;;;;5033506;28;20167;-70
2021/01/24 01:12:03;;;;;;;19.17;13.27;;;2.30;99.90;;;;;;5051364;28;20194;-70
2021/01/24 01:14:29;;;;;;;19.63;13.40;;;2.30;99.90;;;;;;5051119;28;20573;-70
2021/01/24 01:16:54;;;;;;;18.63;12.93;;;2.30;99.90;;;;;;5051341;28;20481;-70
2021/01/24 01:19:20;;;;;;;17.87;13.83;;;2.30;99.90;;;;;;5051235;28;20177;-70
2021/01/24 01:21:45;;;;;;;18.60;12.80;;;2.30;99.90;;;;;;5051248;28;20195;-71
2021/01/24 01:24:11;;;;;;;20.87;13.43;;;2.30;99.90;;;;;;5051350;28;20179;-71
2021/01/24 01:26:36;;;;;;;19.90;13.73;;;2.30;99.90;;;;;;5033279;28;20613;-71
2021/01/24 01:29:02;;;;;;;18.00;12.70;;;2.30;99.90;;;;;;5051171;28;20217;-71
2021/01/24 01:31:27;;;;;;;20.20;12.90;;;2.30;99.90;;;;;;5050711;28;20246;-72
2021/01/24 01:33:53;;;;;;;19.53;14.17;;;2.30;99.90;;;;;;5051156;28;20174;-71
2021/01/24 01:36:18;;;;;;;17.17;13.13;;;2.30;99.90;;;;;;5051100;28;20528;-71
2021/01/24 01:38:44;;;;;;;15.63;12.73;;;2.30;99.90;;;;;;5051408;28;20167;-71
2021/01/24 01:41:09;;;;;;;18.07;11.90;;;2.30;99.90;;;;;;5049856;28;20187;-70
2021/01/24 01:43:35;;;;;;;21.47;12.57;;;2.40;99.90;;;;;;5048900;28;20643;-70
2021/01/24 01:46:00;;;;;;;17.43;12.93;;;2.30;99.90;;;;;;5050808;28;20505;-70
2021/01/24 01:48:26;;;;;;;21.70;15.60;;;2.30;99.90;;;;;;5050870;28;20186;-71
2021/01/24 01:50:51;;;;;;;20.03;13.00;;;2.30;99.90;;;;;;5053824;28;20237;-70
2021/01/24 01:53:17;;;;;;;20.27;13.57;;;2.30;99.90;;;;;;5055702;28;20210;-71
2021/01/24 01:55:42;;;;;;;18.70;13.83;;;2.20;99.90;;;;;;5058231;28;20179;-71
2021/01/24 01:58:08;;;;;;;22.30;15.00;;;2.20;99.90;;;;;;5058766;28;20171;-71
2021/01/24 02:00:34;;;;;;;22.60;13.50;;;2.20;99.90;;;;;;5058242;28;20191;-71
2021/01/24 02:03:31;;;;;;;19.37;13.00;;;2.10;99.90;;;;;;5054695;28;20549;-71
2021/01/24 02:06:19;;;;;;;20.93;13.77;;;2.20;99.90;;;;;;5054491;28;20179;-71
2021/01/24 02:08:56;;;;;;;20.73;13.70;;;2.10;99.90;;;;;;5034419;28;20409;-71
2021/01/24 02:11:56;;;;;;;19.87;12.77;;;2.20;99.90;;;;;;5034764;28;20463;-71
2021/01/24 02:14:36;;;;;;;21.90;13.60;;;2.20;99.90;;;;;;5034406;28;20409;-71
2021/01/24 02:17:05;;;;;;;21.23;15.50;;;2.10;99.90;;;;;;5041117;28;20406;-70
2021/01/24 02:19:57;;;;;;;18.90;13.33;;;2.10;99.90;;;;;;5053952;28;20416;-70
2021/01/24 02:22:24;;;;;;;23.97;15.30;;;2.20;99.90;;;;;;5053978;28;20401;-70
2021/01/24 02:25:03;;;;;;;19.50;16.23;;;2.10;99.90;;;;;;5054129;28;20430;-70
2021/01/24 02:27:48;;;;;;;23.13;15.27;;;2.10;99.90;;;;;;5054141;28;20420;-71
2021/01/24 02:30:23;;;;;;;18.13;12.87;;;2.10;99.90;;;;;;5054094;28;20584;-70
2021/01/24 02:32:53;;;;;;;19.07;13.67;;;2.10;99.90;;;;;;5053741;28;20821;-70
2021/01/24 02:35:23;;;;;;;22.50;15.70;;;2.10;99.90;;;;;;5053927;28;20397;-69
2021/01/24 02:37:49;;;;;;;24.37;15.50;;;2.10;99.90;;;;;;5053444;28;20918;-70
2021/01/24 02:40:15;;;;;;;17.70;13.60;;;2.10;99.90;;;;;;5053500;28;20429;-69
2021/01/24 02:42:41;;;;;;;20.50;13.93;;;2.10;99.90;;;;;;5053460;28;20466;-70
2021/01/24 02:45:07;;;;;;;19.07;15.83;;;2.10;99.90;;;;;;5053499;28;20904;-70
2021/01/24 02:47:35;;;;;;;18.47;12.90;;;2.10;99.90;;;;;;5052136;28;20493;-70
2021/01/24 02:50:02;;;;;;;16.07;12.67;;;2.10;99.90;;;;;;5053128;28;20451;-70
2021/01/24 02:52:28;;;;;;;20.90;12.60;;;2.00;99.90;;;;;;5053024;28;20790;-71
2021/01/24 02:54:54;;;;;;;21.30;13.53;;;2.10;99.90;;;;;;5053402;28;20444;-70
2021/01/24 02:57:19;;;;;;;18.57;12.30;;;2.10;99.90;;;;;;5053652;28;20182;-71
2021/01/24 02:59:45;;;;;;;19.40;12.67;;;2.10;99.90;;;;;;5035543;28;20496;-70
2021/01/24 03:02:10;;;;;;;18.53;13.63;;;2.10;99.90;;;;;;5035189;28;20612;-70
2021/01/24 03:04:36;;;;;;;17.23;13.27;;;2.10;99.90;;;;;;5053049;28;20202;-71
2021/01/24 03:07:03;;;;;;;18.23;13.83;;;2.10;99.90;;;;;;5052988;28;20167;-70
2021/01/24 03:09:28;;;;;;;19.33;13.30;;;2.00;99.90;;;;;;5052150;28;20199;-70
2021/01/24 03:11:57;;;;;;;20.30;14.23;;;2.00;99.90;;;;;;5052840;28;20459;-70
2021/01/24 03:14:25;;;;;;;22.50;14.80;;;2.00;99.90;;;;;;5053022;28;20544;-70
2021/01/24 03:16:56;;;;;;;23.03;13.87;;;2.00;99.90;;;;;;5052820;28;20405;-70
2021/01/24 03:19:25;;;;;;;21.43;14.70;;;2.00;99.90;;;;;;5052854;28;20397;-70
2021/01/24 03:21:52;;;;;;;22.27;13.37;;;1.90;99.90;;;;;;5052838;28;20434;-70
2021/01/24 03:24:17;;;;;;;25.97;16.63;;;1.90;99.90;;;;;;5052933;28;20413;-70
2021/01/24 03:26:44;;;;;;;22.87;15.20;;;1.90;99.90;;;;;;5052689;28;20932;-71
2021/01/24 03:29:10;;;;;;;27.50;17.60;;;1.80;99.90;;;;;;5052710;28;20455;-70
2021/01/24 03:31:38;;;;;;;26.10;15.20;;;1.80;99.90;;;;;;5052335;28;20469;-70
2021/01/24 03:34:07;;;;;;;26.93;14.80;;;1.90;99.90;;;;;;5052642;28;20564;-70
2021/01/24 03:36:32;;;;;;;23.30;15.67;;;1.90;99.90;;;;;;5052660;28;20401;-70
2021/01/24 03:38:58;;;;;;;26.63;18.77;;;1.90;99.90;;;;;;5052961;28;20412;-70
2021/01/24 03:41:23;;;;;;;27.07;16.60;;;1.90;99.90;;;;;;5051420;28;20281;-71
2021/01/24 03:43:48;;;;;;;25.83;16.27;;;1.90;99.90;;;;;;5052909;28;20543;-71
2021/01/24 03:46:14;;;;;;;26.00;16.97;;;1.90;99.90;;;;;;5052285;28;20175;-71
2021/01/24 03:48:39;;;;;;;22.07;14.47;;;2.00;99.90;;;;;;5052484;28;20241;-71
2021/01/24 03:51:05;;;;;;;21.40;15.07;;;1.90;99.90;;;;;;5052130;28;20214;-71
2021/01/24 03:53:30;;;;;;;24.27;16.00;;;2.00;99.90;;;;;;5052250;28;20206;-71
2021/01/24 03:55:56;;;;;;;27.90;16.80;;;2.00;99.90;;;;;;5052317;28;20681;-71
2021/01/24 03:58:21;;;;;;;19.67;16.23;;;2.00;99.90;;;;;;5052140;28;20250;-72
2021/01/24 04:00:47;;;;;;;20.43;15.00;;;2.00;99.90;;;;;;5052469;28;20245;-71
2021/01/24 04:03:12;;;;;;;22.70;13.90;;;2.10;99.90;;;;;;5052356;28;20171;-71
2021/01/24 04:05:37;;;;;;;20.57;15.97;;;2.00;99.90;;;;;;5052193;28;20569;-71
2021/01/24 04:08:03;;;;;;;22.17;15.43;;;2.00;99.90;;;;;;5051815;28;20240;-70
2021/01/24 04:10:28;;;;;;;20.27;12.93;;;2.10;99.90;;;;;;5051817;28;20239;-71
2021/01/24 04:12:54;;;;;;;21.07;13.97;;;2.10;99.90;;;;;;5052045;28;20173;-71
2021/01/24 04:15:19;;;;;;;19.50;14.00;;;2.20;99.90;;;;;;5051874;28;20628;-71
2021/01/24 04:17:45;;;;;;;18.03;12.93;;;2.20;99.90;;;;;;5052222;28;20166;-70
2021/01/24 04:20:11;;;;;;;19.47;13.43;;;2.20;99.90;;;;;;5051658;28;20253;-70
2021/01/24 04:22:37;;;;;;;19.83;13.80;;;2.20;99.90;;;;;;5051627;28;20406;-70
2021/01/24 04:25:03;;;;;;;21.67;14.70;;;2.30;99.90;;;;;;5051575;28;20408;-70
2021/01/24 04:27:29;;;;;;;17.63;11.90;;;2.30;99.90;;;;;;5051614;28;20220;-69
2021/01/24 04:29:54;;;;;;;27.10;13.17;;;2.30;99.90;;;;;;5051350;28;20409;-71
2021/01/24 04:32:20;;;;;;;17.87;12.77;;;2.30;99.90;;;;;;5051683;28;20277;-70
2021/01/24 04:34:45;;;;;;;22.07;13.10;;;2.30;99.90;;;;;;5051827;28;20505;-70
2021/01/24 04:37:11;;;;;;;17.57;12.03;;;2.30;99.90;;;;;;5051460;28;20167;-70
2021/01/24 04:39:36;;;;;;;15.77;11.00;;;2.30;99.90;;;;;;5051549;28;20611;-70
2021/01/24 04:42:02;;;;;;;14.40;11.00;;;2.40;99.90;;;;;;5051388;28;20236;-70
2021/01/24 04:44:28;;;;;;;19.50;13.00;;;2.40;99.90;;;;;;5051380;28;20171;-70
2021/01/24 04:46:54;;;;;;;18.27;12.93;;;2.40;99.90;;;;;;5051170;28;20186;-70
2021/01/24 04:49:20;;;;;;;17.90;13.43;;;2.40;99.90;;;;;;5051563;28;20438;-70
2021/01/24 04:51:46;;;;;;;24.37;14.20;;;2.30;99.90;;;;;;5051242;28;20457;-70
2021/01/24 04:54:13;;;;;;;16.53;11.53;;;2.30;99.90;;;;;;5051446;28;20417;-70
2021/01/24 04:56:39;;;;;;;18.70;11.17;;;2.20;99.90;;;;;;5051506;28;20410;-70
2021/01/24 04:59:05;;;;;;;13.83;9.73;;;2.20;99.90;;;;;;5051373;28;20447;-70
2021/01/24 05:01:32;;;;;;;14.50;9.07;;;2.20;99.90;;;;;;5051244;28;20194;-70
2021/01/24 05:03:59;;;;;;;16.93;9.90;;;2.20;99.90;;;;;;5051476;28;20409;-71
2021/01/24 05:06:24;;;;;;;15.97;10.10;;;2.10;99.90;;;;;;5051866;28;20406;-70
2021/01/24 05:08:49;;;;;;;16.00;11.23;;;2.10;99.90;;;;;;5051446;28;20774;-71
2021/01/24 05:11:15;;;;;;;15.40;10.90;;;2.10;99.90;;;;;;5051205;28;20272;-70
2021/01/24 05:13:41;;;;;;;19.37;9.77;;;2.00;99.90;;;;;;5051365;28;20189;-73
2021/01/24 05:16:07;;;;;;;19.80;10.23;;;2.00;99.90;;;;;;5051585;28;20626;-70
2021/01/24 05:18:33;;;;;;;13.17;9.30;;;2.10;99.90;;;;;;5051408;28;20461;-69
2021/01/24 05:20:59;;;;;;;18.23;9.77;;;2.00;99.90;;;;;;5051154;28;20433;-70
2021/01/24 05:23:25;;;;;;;11.60;8.27;;;2.00;99.90;;;;;;5051171;28;20405;-70
2021/01/24 05:25:55;;;;;;;11.80;8.00;;;2.10;99.90;;;;;;5051159;28;20503;-70
2021/01/24 05:28:26;;;;;;;11.67;7.43;;;2.00;99.90;;;;;;5051124;28;20424;-70
2021/01/24 05:31:02;;;;;;;11.97;8.93;;;2.10;99.90;;;;;;5051037;28;20461;-70
2021/01/24 05:33:27;;;;;;;15.53;8.57;;;2.10;99.90;;;;;;5054589;28;20417;-70
2021/01/24 05:35:53;;;;;;;13.47;7.80;;;2.00;99.90;;;;;;5055279;28;20809;-70
2021/01/24 05:38:36;;;;;;;14.30;9.10;;;2.00;99.90;;;;;;5055004;28;20171;-69
2021/01/24 05:41:08;;;;;;;10.50;7.80;;;1.90;99.90;;;;;;5054949;28;20242;-70
2021/01/24 05:43:43;;;;;;;9.87;6.73;;;1.90;99.90;;;;;;5054966;28;20500;-70
2021/01/24 05:46:10;;;;;;;14.27;9.97;;;1.90;99.90;;;;;;5054741;28;20444;-70
2021/01/24 05:48:37;;;;;;;15.30;8.80;;;1.90;99.90;;;;;;5053401;28;20504;-70
2021/01/24 05:51:05;;;;;;;16.50;9.30;;;1.90;99.90;;;;;;5053359;28;20989;-69
2021/01/24 05:53:40;;;;;;;15.60;9.43;;;1.90;99.90;;;;;;5054418;28;20416;-69
2021/01/24 05:56:10;;;;;;;12.50;7.50;;;1.90;99.90;;;;;;5037349;28;20405;-71
2021/01/24 05:58:36;;;;;;;12.67;8.53;;;1.80;99.90;;;;;;5054572;28;20429;-69
2021/01/24 06:01:01;;;;;;;16.67;8.60;;;1.90;99.90;;;;;;5054535;28;20791;-70
2021/01/24 06:03:27;;;;;;;16.57;8.83;;;1.80;99.90;;;;;;5054732;28;20547;-70
2021/01/24 06:05:52;;;;;;;11.47;7.20;;;1.80;99.90;;;;;;5054263;28;20193;-70
2021/01/24 06:08:18;;;;;;;16.20;9.63;;;1.80;99.90;;;;;;5054636;28;20170;-70
2021/01/24 06:10:43;;;;;;;16.23;9.80;;;1.80;99.90;;;;;;5054701;28;20656;-72
2021/01/24 06:13:14;;;;;;;14.50;8.00;;;1.80;99.90;;;;;;5054425;28;20217;-71
2021/01/24 06:15:41;;;;;;;12.80;7.97;;;1.80;99.90;;;;;;5054611;28;20623;-70
2021/01/24 06:18:14;;;;;;;13.63;8.63;;;1.80;99.90;;;;;;5054279;28;20398;-70
2021/01/24 06:20:44;;;;;;;14.43;7.90;;;1.80;99.90;;;;;;5054477;28;20499;-70
2021/01/24 06:23:38;;;;;;;8.83;6.67;;;1.80;99.90;;;;;;5054412;28;20401;-71
2021/01/24 06:26:10;;;;;;;18.53;8.27;;;1.80;99.90;;;;;;5054333;28;20400;-71
2021/01/24 06:28:41;;;;;;;12.50;7.20;;;1.80;99.90;;;;;;5054119;28;20413;-71
2021/01/24 06:31:12;;;;;;;13.57;8.97;;;1.80;99.90;;;;;;5053927;28;20461;-70
2021/01/24 06:33:38;;;;;;;15.03;9.37;;;1.70;99.90;;;;;;5054136;28;20416;-71
2021/01/24 06:36:04;;;;;;;12.03;8.03;;;1.70;99.90;;;;;;5054042;28;20393;-71
2021/01/24 06:38:35;;;;;;;19.23;8.47;;;1.70;99.90;;;;;;5053896;28;20667;-71
2021/01/24 06:41:03;;;;;;;13.43;6.73;;;1.80;99.90;;;;;;5053933;28;20437;-70
2021/01/24 06:43:43;;;;;;;16.40;8.10;;;1.70;99.90;;;;;;5053782;28;20412;-70
2021/01/24 06:46:29;;;;;;;16.00;9.17;;;1.70;99.90;;;;;;5037536;28;20421;-71
2021/01/24 06:48:56;;;;;;;11.37;7.67;;;1.70;99.90;;;;;;5052069;28;20428;-70
2021/01/24 06:51:37;;;;;;;9.87;7.73;;;1.70;99.90;;;;;;5053498;28;20469;-71
2021/01/24 06:54:08;;;;;;;17.10;9.33;;;1.70;99.90;;;;;;5053063;28;20409;-70
2021/01/24 06:56:38;;;;;;;12.73;7.43;;;1.80;99.90;;;;;;5053025;28;20429;-70
2021/01/24 06:59:03;;;;;;;12.30;8.93;;;1.80;99.90;;;;;;5053360;28;20406;-70
2021/01/24 07:01:34;;;;;;;13.30;8.50;;;1.80;99.90;;;;;;5053539;28;20444;-70
2021/01/24 07:04:20;;;;;;;17.07;8.00;;;1.70;99.90;;;;;;5054223;28;20639;-70
2021/01/24 07:06:50;;;;;;;16.03;9.53;;;1.80;99.90;;;;;;5053422;28;20409;-70
2021/01/24 07:09:42;;;;;;;13.30;7.33;;;1.80;99.90;;;;;;5053416;28;20413;-71
2021/01/24 07:12:09;;;;;;;13.27;9.23;;;1.80;99.90;;;;;;5053133;28;20457;-70
2021/01/24 07:14:35;;;;;;;14.17;8.73;;;1.80;99.90;;;;;;5053180;28;20444;-71
2021/01/24 07:17:07;;;;;;;11.70;9.20;;;1.80;99.90;;;;;;5035126;28;20438;-72
2021/01/24 07:19:37;;;;;;;11.83;7.90;;;1.80;99.90;;;;;;5053059;28;20174;-71
2021/01/24 07:22:04;;;;;;;15.33;8.67;;;1.70;99.90;;;;;;5053158;28;20504;-72
2021/01/24 07:24:30;;;;;;;19.70;9.80;;;1.80;99.90;;;;;;5053284;28;20761;-71
2021/01/24 07:26:56;;;;;;;13.77;8.10;;;1.80;99.90;;;;;;5053115;28;20917;-72
2021/01/24 07:29:22;;;;;;;14.50;8.93;;;1.80;99.90;;;;;;5053027;28;20756;-72
2021/01/24 07:31:48;;;;;;;16.67;8.20;;;1.80;99.90;;;;;;5052755;28;20465;-72
2021/01/24 07:34:14;;;;;;;13.13;7.27;;;1.80;99.90;;;;;;5053035;28;20398;-72
2021/01/24 07:36:41;;;;;;;11.83;7.53;;;1.80;99.90;;;;;;5052981;28;20171;-73
2021/01/24 07:39:07;;;;;;;14.80;8.20;;;1.80;99.90;;;;;;5053115;28;20405;-72
2021/01/24 07:41:32;;;;;;;17.23;8.53;;;1.90;99.90;;;;;;5052714;28;20429;-73
2021/01/24 07:43:58;;;;;;;14.47;7.93;;;1.80;99.90;;;;;;5052710;28;20535;-73
2021/01/24 07:46:23;;;;;;;12.30;7.90;;;1.90;99.90;;;;;;5052679;28;20640;-72
2021/01/24 07:48:49;;;;;;;11.47;7.57;;;1.90;99.90;;;;;;5052594;28;20174;-72
2021/01/24 07:51:17;;;;;;;12.23;7.03;;;1.90;99.90;;;;;;5052443;28;20252;-72
2021/01/24 07:53:43;;;;;;;14.50;7.63;;;1.90;99.90;;;;;;5053010;28;20163;-72
2021/01/24 07:56:09;;;;;;;12.63;7.50;;;1.90;99.90;;;;;;5051991;28;20776;-73
2021/01/24 07:58:36;;;;;;;10.77;7.37;;;1.90;99.90;;;;;;5052351;28;20190;-73
2021/01/24 08:01:02;;;;;;;11.10;7.40;;;1.90;99.90;;;;;;5052439;28;20430;-73
2021/01/24 08:03:29;;;;;;;15.17;8.60;;;2.00;99.90;;;;;;5052479;28;20437;-74
2021/01/24 08:06:08;;;;;;;13.10;8.30;;;2.00;99.90;;;;;;5052205;28;20409;-74
2021/01/24 08:08:37;;;;;;;10.10;8.03;;;2.00;99.90;;;;;;5052278;28;20409;-72
2021/01/24 08:11:03;;;;;;;13.40;8.10;;;2.00;99.90;;;;;;5052205;28;20472;-72
2021/01/24 08:13:29;;;;;;;14.50;8.07;;;2.00;99.90;;;;;;5052203;28;20434;-72
2021/01/24 08:15:56;;;;;;;11.43;7.93;;;2.10;99.90;;;;;;5052308;28;20947;-73
2021/01/24 08:18:24;;;;;;;13.43;7.60;;;2.10;99.90;;;;;;5052108;28;20578;-72
2021/01/24 08:20:50;;;;;;;12.77;7.83;;;2.00;99.90;;;;;;5052189;28;20429;-72
2021/01/24 08:23:16;;;;;;;13.17;7.40;;;2.10;99.90;;;;;;5052009;28;20396;-72
2021/01/24 08:25:42;;;;;;;11.90;7.60;;;2.10;99.90;;;;;;5051958;28;20402;-72
2021/01/24 08:28:08;;;;;;;14.63;8.57;;;2.20;99.90;;;;;;5051790;28;20398;-72
2021/01/24 08:30:43;;;;;;;10.00;8.00;;;2.20;99.90;;;;;;5051894;28;20464;-72
2021/01/24 08:33:12;;;;;;;10.47;9.33;;;2.30;99.90;;;;;;5051806;28;20800;-72
2021/01/24 08:35:38;;;;;;;7.60;6.30;;;2.30;99.90;;;;;;5052067;28;20490;-73
2021/01/24 08:38:03;;;;;;;13.80;8.50;;;2.20;99.90;;;;;;5051888;28;20437;-72
2021/01/24 08:40:36;;;;;;;12.27;6.60;;;2.20;99.90;;;;;;5051844;28;20256;-72
2021/01/24 08:43:03;;;;;;;9.30;6.33;;;2.20;99.90;;;;;;5052268;28;20459;-72
2021/01/24 08:45:29;;;;;;;11.20;6.67;;;2.20;99.90;;;;;;5052375;28;20405;-72
2021/01/24 08:47:59;;;;;;;8.20;6.77;;;2.30;99.90;;;;;;5055300;28;20463;-74
2021/01/24 08:50:36;;;;;;;10.33;6.80;;;2.20;99.90;;;;;;5055037;28;20449;-73
2021/01/24 08:53:04;;;;;;;11.83;5.60;;;2.20;99.90;;;;;;5057474;28;20413;-73
2021/01/24 08:55:30;;;;;;;11.37;7.20;;;2.20;99.90;;;;;;5054529;28;20471;-73
2021/01/24 08:57:55;;;;;;;8.00;5.90;;;2.20;99.90;;;;;;5051749;28;20405;-73
2021/01/24 09:00:22;;;;;;;10.10;6.97;;;2.30;99.90;;;;;;5051867;28;20577;-73
2021/01/24 09:02:49;;;;;;;12.30;6.87;;;2.30;99.90;;;;;;5051758;28;20196;-74
2021/01/24 09:05:35;;;;;;;8.93;5.83;;;2.40;99.90;;;;;;5051679;28;20509;-71
2021/01/24 09:08:01;;;;;;;10.70;6.63;;;2.40;99.90;;;;;;5053943;28;20413;-72
2021/01/24 09:10:31;;;;;;;10.97;7.30;;;2.30;99.90;;;;;;5055709;28;20453;-72
2021/01/24 09:13:01;;;;;;;12.30;6.60;;;2.40;99.90;;;;;;5055788;28;20250;-72
2021/01/24 09:15:30;;;;;;;11.60;6.23;;;2.40;99.90;;;;;;5056122;28;20409;-72
2021/01/24 09:17:57;;;;;;;10.80;6.90;;;2.40;99.90;;;;;;5055633;28;20402;-72
2021/01/24 09:20:24;;;;;;;13.90;7.70;;;2.40;99.90;;;;;;5055529;28;20510;-72
2021/01/24 09:22:50;;;;;;;14.13;7.67;;;2.40;99.90;;;;;;5055593;28;20850;-70
2021/01/24 09:25:16;;;;;;;16.13;9.50;;;2.40;99.90;;;;;;5055663;28;20443;-75
2021/01/24 09:27:41;;;;;;;15.97;10.37;;;2.80;99.90;;;;;;5055326;28;20984;-70
2021/01/24 09:30:10;;;;;;;13.73;8.43;;;3.10;99.90;;;;;;5055227;28;20504;-73
2021/01/24 09:32:35;;;;;;;12.50;7.33;;;3.20;99.90;;;;;;5053362;28;20693;-72
2021/01/24 09:35:01;;;;;;;9.83;8.33;;;2.80;99.90;;;;;;5055246;28;20405;-73
2021/01/24 09:37:27;;;;;;;9.70;5.87;;;2.70;99.90;;;;;;5055298;28;20229;-72
2021/01/24 09:39:52;;;;;;;13.47;7.07;;;2.60;99.90;;;;;;5055291;28;20167;-73
2021/01/24 09:42:17;;;;;;;11.13;7.20;;;2.50;99.90;;;;;;5055252;28;20195;-72
2021/01/24 09:44:43;;;;;;;11.63;7.20;;;2.60;99.90;;;;;;5054641;28;20217;-72
2021/01/24 09:47:09;;;;;;;10.00;7.07;;;2.60;99.90;;;;;;5054874;28;20167;-72
2021/01/24 09:49:34;;;;;;;12.10;7.60;;;2.60;99.90;;;;;;5055068;28;20258;-75
2021/01/24 09:52:00;;;;;;;12.30;7.97;;;2.60;99.90;;;;;;5054698;28;20286;-73
2021/01/24 09:54:25;;;;;;;9.73;8.17;;;2.50;99.90;;;;;;5054806;28;20630;-72
2021/01/24 09:56:51;;;;;;;13.63;7.23;;;2.60;99.90;;;;;;5054524;28;20236;-72
2021/01/24 09:59:17;;;;;;;10.53;7.50;;;2.60;99.90;;;;;;5054785;28;20167;-71
2021/01/24 10:01:42;;;;;;;10.80;8.10;;;2.60;99.90;;;;;;5054969;28;20209;-72
2021/01/24 10:04:09;;;;;;;9.33;5.83;;;2.60;99.90;;;;;;5054686;28;20406;-71
2021/01/24 10:06:35;;;;;;;12.00;7.37;;;2.60;99.90;;;;;;5050884;28;20615;-72
2021/01/24 10:09:01;;;;;;;16.03;9.07;;;2.60;99.90;;;;;;5054005;28;20777;-73
2021/01/24 10:11:27;;;;;;;19.47;12.53;;;2.70;99.90;;;;;;5054976;28;20861;-72
2021/01/24 10:13:53;;;;;;;16.50;10.40;;;2.70;99.90;;;;;;5054565;28;20405;-72
2021/01/24 10:16:18;;;;;;;17.40;10.57;;;2.70;99.90;;;;;;5054971;28;20229;-72
2021/01/24 10:18:44;;;;;;;14.97;9.63;;;2.80;99.90;;;;;;5053917;28;20174;-72
2021/01/24 10:21:09;;;;;;;11.87;7.77;;;2.80;99.90;;;;;;5054268;28;20256;-72
2021/01/24 10:23:35;;;;;;;8.20;6.20;;;2.70;99.90;;;;;;5054435;28;20178;-72
2021/01/24 10:26:00;;;;;;;9.63;8.63;;;2.60;99.90;;;;;;5054091;28;20179;-72
2021/01/24 10:28:26;;;;;;;11.80;6.83;;;2.60;99.90;;;;;;5054435;28;20220;-71
2021/01/24 10:30:53;;;;;;;8.67;6.57;;;2.60;99.90;;;;;;5054288;28;20253;-71
2021/01/24 10:33:20;;;;;;;10.27;7.00;;;2.60;99.90;;;;;;5054008;28;20424;-72
2021/01/24 10:35:46;;;;;;;10.80;7.13;;;2.60;99.90;;;;;;5053787;28;20429;-73
2021/01/24 10:38:13;;;;;;;11.40;8.73;;;2.70;99.90;;;;;;5054073;28;20398;-74
2021/01/24 10:40:38;;;;;;;9.80;7.20;;;2.70;99.90;;;;;;5053844;28;20465;-73
2021/01/24 10:43:05;;;;;;;9.20;6.27;;;2.60;99.90;;;;;;5054036;28;20491;-73
2021/01/24 10:45:32;;;;;;;10.27;6.30;;;2.60;99.90;;;;;;5036346;28;20179;-72
2021/01/24 10:48:00;;;;;;;11.17;6.57;;;2.60;99.90;;;;;;5054488;28;20455;-72
2021/01/24 10:50:27;;;;;;;10.07;7.30;;;2.60;99.90;;;;;;5053994;28;20479;-71
2021/01/24 10:52:52;;;;;;;9.90;7.27;;;2.60;99.90;;;;;;5053750;28;20416;-73
2021/01/24 10:55:18;;;;;;;10.13;7.40;;;2.60;99.90;;;;;;5053783;28;20489;-72
2021/01/24 10:57:44;;;;;;;12.23;7.30;;;2.60;99.90;;;;;;5053572;28;20504;-71
2021/01/24 11:00:09;;;;;;;16.40;9.30;;;2.50;99.90;;;;;;5035984;28;20163;-72
2021/01/24 11:02:35;;;;;;;10.43;7.50;;;2.50;99.90;;;;;;5053616;28;20199;-71
2021/01/24 11:05:01;;;;;;;13.80;8.50;;;2.50;99.90;;;;;;5053528;28;20246;-72
2021/01/24 11:07:27;;;;;;;11.37;7.83;;;2.50;99.90;;;;;;5053483;28;20163;-72
2021/01/24 11:09:54;;;;;;;12.70;8.73;;;2.60;99.90;;;;;;5053431;28;20767;-71
2021/01/24 11:12:19;;;;;;;11.87;8.43;;;2.50;99.90;;;;;;5053278;28;20179;-71
2021/01/24 11:14:45;;;;;;;14.33;7.60;;;2.60;99.90;;;;;;5053405;28;20412;-71
2021/01/24 11:17:10;;;;;;;9.63;6.53;;;2.70;99.90;;;;;;5053444;28;20167;-71
2021/01/24 11:19:36;;;;;;;17.90;10.00;;;2.60;99.90;;;;;;5053709;28;20209;-71
2021/01/24 11:22:02;;;;;;;10.87;7.80;;;2.60;99.90;;;;;;5053117;28;20565;-70
2021/01/24 11:24:28;;;;;;;13.80;8.40;;;2.70;99.90;;;;;;5053276;28;20413;-71
2021/01/24 11:26:53;;;;;;;11.53;7.60;;;2.70;99.90;;;;;;5053169;28;20425;-71
2021/01/24 11:29:19;;;;;;;14.10;9.13;;;2.70;99.90;;;;;;5052618;28;20258;-71
2021/01/24 11:31:44;;;;;;;13.93;10.30;;;2.70;99.90;;;;;;5052700;28;20769;-71
2021/01/24 11:34:10;;;;;;;13.57;8.27;;;2.70;99.90;;;;;;5053054;28;20167;-71
2021/01/24 11:36:36;;;;;;;9.90;8.50;;;2.70;99.90;;;;;;5052695;28;20167;-71
2021/01/24 11:39:02;;;;;;;13.70;8.43;;;2.60;99.90;;;;;;5052676;28;20855;-70
2021/01/24 11:41:28;;;;;;;11.13;8.37;;;2.70;99.90;;;;;;5052763;28;20618;-71
2021/01/24 11:43:53;;;;;;;12.50;7.90;;;2.70;99.90;;;;;;5052898;28;20402;-70
2021/01/24 11:46:19;;;;;;;12.90;7.70;;;2.70;99.90;;;;;;5052781;28;20209;-71
2021/01/24 11:48:44;;;;;;;13.57;9.10;;;2.60;99.90;;;;;;5053016;28;20665;-73
2021/01/24 11:51:10;;;;;;;11.90;7.50;;;2.60;99.90;;;;;;5052787;28;20234;-72
2021/01/24 11:53:37;;;;;;;10.93;8.47;;;2.50;99.90;;;;;;5052904;28;20176;-74
2021/01/24 11:56:03;;;;;;;10.97;7.90;;;2.60;99.90;;;;;;5052708;28;20194;-73
2021/01/24 11:58:29;;;;;;;14.27;7.77;;;2.60;99.90;;;;;;5052602;28;20402;-70
2021/01/24 12:00:54;;;;;;;10.40;8.77;;;2.50;99.90;;;;;;5052532;28;20839;-71
2021/01/24 12:03:20;;;;;;;13.97;7.87;;;2.50;99.90;;;;;;5052638;28;20642;-73
2021/01/24 12:05:45;;;;;;;11.90;8.03;;;2.40;99.90;;;;;;5052461;28;20178;-72
2021/01/24 12:08:11;;;;;;;11.87;10.10;;;2.40;99.90;;;;;;5052593;28;20177;-71
2021/01/24 12:10:36;;;;;;;15.63;9.73;;;2.50;99.90;;;;;;5052406;28;20199;-73
2021/01/24 12:13:02;;;;;;;12.60;9.87;;;2.50;99.90;;;;;;5054151;28;20174;-71
2021/01/24 12:15:27;;;;;;;14.00;10.00;;;2.60;99.90;;;;;;5053929;28;20182;-71
2021/01/24 12:17:53;;;;;;;11.70;9.30;;;2.60;99.90;;;;;;5052844;28;20577;-70
2021/01/24 12:20:18;;;;;;;14.90;10.23;;;2.60;99.90;;;;;;5053261;28;20186;-70
2021/01/24 12:22:43;;;;;;;13.10;9.00;;;2.60;99.90;;;;;;5052261;28;20175;-71
2021/01/24 12:25:09;;;;;;;10.63;8.80;;;2.60;99.90;;;;;;5051981;28;20203;-71
2021/01/24 12:27:35;;;;;;;14.73;9.50;;;2.60;99.90;;;;;;5052229;28;20181;-72
2021/01/24 12:30:02;;;;;;;12.93;9.07;;;2.60;99.90;;;;;;5052180;28;20406;-71
2021/01/24 12:32:27;;;;;;;11.53;8.80;;;2.60;99.90;;;;;;5052052;28;20189;-71
2021/01/24 12:34:53;;;;;;;11.70;9.40;;;2.70;99.90;;;;;;5052253;28;20414;-72
2021/01/24 12:37:18;;;;;;;13.50;10.10;;;2.70;99.90;;;;;;5034223;28;20174;-71
2021/01/24 12:39:44;;;;;;;16.27;10.70;;;2.70;99.90;;;;;;5051965;28;20253;-71
2021/01/24 12:42:09;;;;;;;13.83;9.77;;;2.70;99.90;;;;;;5051926;28;20190;-71
2021/01/24 12:44:35;;;;;;;10.07;7.60;;;2.80;99.90;;;;;;5051996;28;20635;-69